createdAt,value
2022-07-27T00:00:48.005Z,98510.66
2022-07-27T00:03:14.707Z,98503.72
2022-07-27T00:05:42.027Z,98500.88
2022-07-27T00:08:08.763Z,98490.44
2022-07-27T00:10:36.666Z,98491.38
2022-07-27T00:13:04.556Z,98493.09
2022-07-27T00:15:31.325Z,98503.53
2022-07-27T00:18:01.185Z,98504.66
2022-07-27T00:20:29.176Z,98500.50
2022-07-27T00:22:56.387Z,98497.63
2022-07-27T00:25:23.658Z,98496.22
2022-07-27T00:27:50.592Z,98501.53
2022-07-27T00:30:17.424Z,98495.97
2022-07-27T00:32:44.267Z,98501.91
2022-07-27T00:35:11.967Z,98501.06
2022-07-27T00:37:38.877Z,98518.88
2022-07-27T00:40:06.822Z,98517.69
2022-07-27T00:42:34.065Z,98520.59
2022-07-27T00:45:02.401Z,98522.69
2022-07-27T00:47:29.149Z,98521.53
2022-07-27T00:49:55.894Z,98512.22
2022-07-27T00:52:23.109Z,98501.69
2022-07-27T00:54:50.107Z,98516.28
2022-07-27T00:57:17.247Z,98504.88
2022-07-27T00:59:44.072Z,98504.94
2022-07-27T01:02:12.151Z,98507.69
2022-07-27T01:04:39.451Z,98506.97
2022-07-27T01:07:07.274Z,98507.28
2022-07-27T01:09:53.771Z,98509.94
2022-07-27T01:12:21.445Z,98514.41
2022-07-27T01:14:49.784Z,98515.19
2022-07-27T01:17:17.603Z,98514.31
2022-07-27T01:19:44.810Z,98507.28
2022-07-27T01:22:12.444Z,98511.03
2022-07-27T01:24:39.602Z,98506.44
2022-07-27T01:27:07.147Z,98510.00
2022-07-27T01:29:35.234Z,98514.31
2022-07-27T01:32:02.641Z,98516.19
2022-07-27T01:34:29.308Z,98523.34
2022-07-27T01:36:55.929Z,98524.47
2022-07-27T01:39:22.542Z,98527.13
2022-07-27T01:41:49.085Z,98520.38
2022-07-27T01:44:15.898Z,98510.06
2022-07-27T01:46:42.485Z,98513.66
2022-07-27T01:49:09.649Z,98517.31
2022-07-27T01:51:36.454Z,98516.50
2022-07-27T01:54:03.256Z,98523.88
2022-07-27T01:56:29.834Z,98519.13
2022-07-27T01:58:56.507Z,98523.25
2022-07-27T02:01:23.213Z,98524.84
2022-07-27T02:03:49.718Z,98516.63
2022-07-27T02:06:16.213Z,98516.63
2022-07-27T02:08:42.784Z,98520.56
2022-07-27T02:11:28.276Z,98527.09
2022-07-27T02:13:54.828Z,98511.53
2022-07-27T02:16:21.488Z,98528.00
2022-07-27T02:18:51.029Z,98523.69
2022-07-27T02:21:17.621Z,98522.25
2022-07-27T02:23:46.935Z,98523.28
2022-07-27T02:26:13.570Z,98522.72
2022-07-27T02:28:40.229Z,98521.69
2022-07-27T02:31:06.893Z,98512.53
2022-07-27T02:33:34.872Z,98515.09
2022-07-27T02:36:01.774Z,98512.38
2022-07-27T02:38:28.544Z,98519.16
2022-07-27T02:40:55.018Z,98510.63
2022-07-27T02:43:21.657Z,98517.94
2022-07-27T02:45:49.785Z,98521.53
2022-07-27T02:48:16.464Z,98523.09
2022-07-27T02:50:43.070Z,98520.31
2022-07-27T02:53:09.823Z,98523.34
2022-07-27T02:55:36.307Z,98513.75
2022-07-27T02:58:02.855Z,98519.00
2022-07-27T03:00:29.609Z,98521.78
2022-07-27T03:02:56.284Z,98526.34
2022-07-27T03:05:22.935Z,98525.78
2022-07-27T03:07:49.598Z,98530.94
2022-07-27T03:10:16.197Z,98528.09
2022-07-27T03:12:44.225Z,98531.66
2022-07-27T03:15:11.351Z,98522.19
2022-07-27T03:17:38.043Z,98522.31
2022-07-27T03:20:05.310Z,98527.75
2022-07-27T03:22:35.415Z,98525.25
2022-07-27T03:25:02.053Z,98527.75
2022-07-27T03:27:29.313Z,98522.59
2022-07-27T03:29:56.666Z,98532.38
2022-07-27T03:32:23.447Z,98531.50
2022-07-27T03:34:50.071Z,98536.66
2022-07-27T03:37:17.335Z,98536.13
2022-07-27T03:39:44.095Z,98529.09
2022-07-27T03:42:12.610Z,98532.19
2022-07-27T03:44:39.399Z,98531.75
2022-07-27T03:47:06.121Z,98527.25
2022-07-27T03:49:32.786Z,98531.34
2022-07-27T03:51:59.500Z,98532.28
2022-07-27T03:54:26.351Z,98529.09
2022-07-27T03:56:53.224Z,98527.25
2022-07-27T03:59:19.943Z,98525.88
2022-07-27T04:01:47.407Z,98531.13
2022-07-27T04:04:14.318Z,98544.09
2022-07-27T04:06:40.915Z,98541.38
2022-07-27T04:09:08.731Z,98549.31
2022-07-27T04:11:36.976Z,98544.94
2022-07-27T04:14:05.322Z,98550.38
2022-07-27T04:16:36.016Z,98541.31
2022-07-27T04:19:03.178Z,98540.78
2022-07-27T04:21:33.698Z,98540.63
2022-07-27T04:24:03.893Z,98543.66
2022-07-27T04:26:31.021Z,98538.22
2022-07-27T04:28:57.726Z,98542.22
2022-07-27T04:31:24.642Z,98543.69
2022-07-27T04:33:51.570Z,98549.81
2022-07-27T04:36:18.402Z,98556.47
2022-07-27T04:38:45.053Z,98553.81
2022-07-27T04:41:11.979Z,98546.28
2022-07-27T04:43:38.986Z,98543.38
2022-07-27T04:46:06.015Z,98551.44
2022-07-27T04:48:34.238Z,98547.75
2022-07-27T04:51:01.899Z,98553.75
2022-07-27T04:53:28.493Z,98553.47
2022-07-27T04:55:55.097Z,98557.59
2022-07-27T04:58:21.637Z,98559.91
2022-07-27T05:00:48.463Z,98571.47
2022-07-27T05:03:15.399Z,98572.94
2022-07-27T05:05:49.748Z,98579.69
2022-07-27T05:08:17.476Z,98574.66
2022-07-27T05:10:44.166Z,98569.34
2022-07-27T05:13:10.841Z,98569.66
2022-07-27T05:15:55.205Z,98572.59
2022-07-27T05:18:23.158Z,98576.84
2022-07-27T05:20:50.567Z,98585.34
2022-07-27T05:23:17.780Z,98578.44
2022-07-27T05:25:44.464Z,98583.13
2022-07-27T05:28:14.606Z,98581.16
2022-07-27T05:30:41.294Z,98596.66
2022-07-27T05:33:08.042Z,98590.34
2022-07-27T05:35:34.974Z,98591.19
2022-07-27T05:38:01.591Z,98594.78
2022-07-27T05:40:28.430Z,98605.31
2022-07-27T05:42:55.602Z,98603.25
2022-07-27T05:45:22.717Z,98607.78
2022-07-27T05:47:49.518Z,98605.13
2022-07-27T05:50:18.093Z,98605.78
2022-07-27T05:52:45.869Z,98606.56
2022-07-27T05:55:12.801Z,98605.84
2022-07-27T05:57:41.339Z,98607.72
2022-07-27T06:00:09.115Z,98614.47
2022-07-27T06:02:36.308Z,98610.28
2022-07-27T06:05:03.216Z,98621.03
2022-07-27T06:07:49.418Z,98616.00
2022-07-27T06:10:17.187Z,98617.44
2022-07-27T06:12:45.150Z,98628.25
2022-07-27T06:15:13.516Z,98622.41
2022-07-27T06:17:40.280Z,98635.06
2022-07-27T06:20:08.264Z,98630.28
2022-07-27T06:22:52.003Z,98631.13
2022-07-27T06:25:21.651Z,98632.78
2022-07-27T06:27:48.917Z,98626.66
2022-07-27T06:30:17.605Z,98637.78
2022-07-27T06:32:44.964Z,98628.59
2022-07-27T06:35:13.838Z,98635.06
2022-07-27T06:37:44.256Z,98646.34
2022-07-27T06:40:13.361Z,98644.59
2022-07-27T06:42:41.172Z,98640.94
2022-07-27T06:45:09.421Z,98644.59
2022-07-27T06:47:49.896Z,98647.56
2022-07-27T06:50:20.599Z,98650.66
2022-07-27T06:52:48.657Z,98650.44
2022-07-27T06:55:15.851Z,98652.50
2022-07-27T06:57:43.220Z,98653.81
2022-07-27T07:00:10.903Z,98651.44
2022-07-27T07:02:37.863Z,98656.03
2022-07-27T07:05:04.798Z,98649.09
2022-07-27T07:07:31.948Z,98658.44
2022-07-27T07:09:58.744Z,98654.53
2022-07-27T07:12:25.839Z,98649.47
2022-07-27T07:14:52.811Z,98644.16
2022-07-27T07:17:20.063Z,98651.50
2022-07-27T07:19:46.828Z,98642.97
2022-07-27T07:22:13.663Z,98647.81
2022-07-27T07:24:40.308Z,98655.09
2022-07-27T07:27:07.063Z,98659.38
2022-07-27T07:29:33.710Z,98651.63
2022-07-27T07:32:00.406Z,98653.56
2022-07-27T07:34:27.583Z,98656.16
2022-07-27T07:36:54.131Z,98655.22
2022-07-27T07:39:20.773Z,98664.41
2022-07-27T07:41:48.369Z,98658.00
2022-07-27T07:44:14.903Z,98657.66
2022-07-27T07:46:43.971Z,98654.66
2022-07-27T07:49:13.853Z,98656.22
2022-07-27T07:51:40.786Z,98657.22
2022-07-27T07:54:07.430Z,98657.13
2022-07-27T07:56:34.014Z,98655.00
2022-07-27T07:59:01.469Z,98656.28
2022-07-27T08:01:28.336Z,98656.13
2022-07-27T08:03:55.376Z,98651.38
2022-07-27T08:06:22.347Z,98661.47
2022-07-27T08:08:49.128Z,98652.44
2022-07-27T08:11:16.009Z,98649.56
2022-07-27T08:13:42.826Z,98647.81
2022-07-27T08:16:09.487Z,98654.03
2022-07-27T08:18:36.130Z,98661.53
2022-07-27T08:21:02.785Z,98649.31
2022-07-27T08:23:31.937Z,98668.53
2022-07-27T08:26:00.083Z,98664.41
2022-07-27T08:28:34.796Z,98662.47
2022-07-27T08:31:14.801Z,98670.69
2022-07-27T08:33:45.478Z,98666.44
2022-07-27T08:36:12.086Z,98673.13
2022-07-27T08:38:38.880Z,98673.34
2022-07-27T08:41:07.416Z,98676.44
2022-07-27T08:43:34.219Z,98671.06
2022-07-27T08:46:01.509Z,98671.72
2022-07-27T08:48:31.021Z,98669.88
2022-07-27T08:50:57.972Z,98666.16
2022-07-27T08:53:25.434Z,98669.22
2022-07-27T08:55:52.523Z,98672.56
2022-07-27T08:58:19.348Z,98669.66
2022-07-27T09:00:48.526Z,98665.56
2022-07-27T09:03:20.058Z,98671.31
2022-07-27T09:05:53.029Z,98670.03
2022-07-27T09:08:25.054Z,98665.78
2022-07-27T09:10:54.717Z,98660.72
2022-07-27T09:13:28.477Z,98664.50
2022-07-27T09:16:23.018Z,98668.13
2022-07-27T09:18:59.680Z,98664.03
2022-07-27T09:21:26.378Z,98658.84
2022-07-27T09:24:18.021Z,98655.00
2022-07-27T09:27:02.137Z,98656.66
2022-07-27T09:29:34.474Z,98656.38
2022-07-27T09:32:01.173Z,98660.09
2022-07-27T09:34:31.029Z,98650.97
2022-07-27T09:36:58.880Z,98665.03
2022-07-27T09:39:27.749Z,98663.91
2022-07-27T09:41:57.038Z,98653.25
2022-07-27T09:44:42.535Z,98666.66
2022-07-27T09:47:30.914Z,98666.94
2022-07-27T09:50:17.532Z,98667.75
2022-07-27T09:52:44.960Z,98657.53
2022-07-27T09:55:11.921Z,98670.81
2022-07-27T09:57:56.215Z,98665.25
2022-07-27T10:00:23.500Z,98673.66
2022-07-27T10:02:53.402Z,98662.28
2022-07-27T10:05:22.923Z,98672.66
2022-07-27T10:07:51.814Z,98678.59
2022-07-27T10:10:19.081Z,98682.34
2022-07-27T10:12:51.945Z,98677.97
2022-07-27T10:15:21.411Z,98676.53
2022-07-27T10:17:53.518Z,98670.22
2022-07-27T10:20:20.335Z,98677.28
2022-07-27T10:22:52.792Z,98676.50
2022-07-27T10:25:20.616Z,98679.94
2022-07-27T10:27:49.429Z,98676.00
2022-07-27T10:30:24.291Z,98679.94
2022-07-27T10:32:54.577Z,98678.25
2022-07-27T10:35:32.682Z,98681.38
2022-07-27T10:38:11.129Z,98679.97
2022-07-27T10:40:39.181Z,98682.88
2022-07-27T10:43:18.395Z,98678.03
2022-07-27T10:46:01.583Z,98680.31
2022-07-27T10:48:37.750Z,98668.03
2022-07-27T10:51:06.716Z,98667.03
2022-07-27T10:54:10.808Z,98661.69
2022-07-27T10:56:47.401Z,98669.34
2022-07-27T10:59:14.142Z,98664.47
2022-07-27T11:01:57.629Z,98661.06
2022-07-27T11:04:25.226Z,98658.50
2022-07-27T11:07:23.968Z,98658.72
2022-07-27T11:10:07.632Z,98668.22
2022-07-27T11:12:36.738Z,98658.03
2022-07-27T11:15:04.145Z,98654.34
2022-07-27T11:20:23.213Z,98645.16
2022-07-27T11:25:36.475Z,98656.03
2022-07-27T11:28:07.631Z,98647.72
2022-07-27T11:30:34.487Z,98645.50
2022-07-27T11:33:04.934Z,98642.81
2022-07-27T11:35:34.459Z,98641.16
2022-07-27T11:38:02.993Z,98641.41
2022-07-27T11:41:12.842Z,98643.09
2022-07-27T11:43:38.672Z,98635.78
2022-07-27T11:46:18.229Z,98634.00
2022-07-27T11:49:06.499Z,98628.69
2022-07-27T11:51:44.863Z,98629.03
2022-07-27T11:54:22.376Z,98628.16
2022-07-27T11:57:00.955Z,98629.66
2022-07-27T11:59:32.239Z,98622.41
2022-07-27T12:02:03.073Z,98615.88
2022-07-27T12:04:51.407Z,98619.16
2022-07-27T12:07:21.968Z,98617.31
2022-07-27T12:09:54.725Z,98621.91
2022-07-27T12:12:26.886Z,98618.75
2022-07-27T12:14:57.263Z,98622.69
2022-07-27T12:17:30.795Z,98614.22
2022-07-27T12:19:58.569Z,98607.50
2022-07-27T12:22:28.861Z,98596.16
2022-07-27T12:24:56.477Z,98602.94
2022-07-27T12:27:23.626Z,98593.97
2022-07-27T12:30:01.293Z,98590.28
2022-07-27T12:32:31.865Z,98589.06
2022-07-27T12:34:58.962Z,98581.38
2022-07-27T12:37:32.467Z,98588.19
2022-07-27T12:39:59.975Z,98590.91
2022-07-27T12:42:36.967Z,98589.31
2022-07-27T12:45:20.229Z,98589.63
2022-07-27T12:47:46.997Z,98588.00
2022-07-27T12:50:26.788Z,98584.63
2022-07-27T12:52:54.247Z,98584.69
2022-07-27T12:55:22.610Z,98584.47
2022-07-27T12:57:56.200Z,98577.56
2022-07-27T13:00:32.719Z,98581.41
2022-07-27T13:03:00.853Z,98580.53
2022-07-27T13:05:27.707Z,98583.19
2022-07-27T13:07:54.422Z,98560.63
2022-07-27T13:10:21.271Z,98570.03
2022-07-27T13:12:48.749Z,98573.94
2022-07-27T13:15:16.859Z,98581.25
2022-07-27T13:17:44.317Z,98586.63
2022-07-27T13:20:12.683Z,98583.81
2022-07-27T13:22:40.386Z,98586.81
2022-07-27T13:25:16.187Z,98579.41
2022-07-27T13:27:44.660Z,98584.16
2022-07-27T13:30:12.242Z,98585.88
2022-07-27T13:32:40.212Z,98581.47
2022-07-27T13:35:08.461Z,98581.38
2022-07-27T13:37:35.177Z,98578.84
2022-07-27T13:40:01.850Z,98585.75
2022-07-27T13:42:28.606Z,98587.72
2022-07-27T13:45:08.669Z,98588.47
2022-07-27T13:47:37.291Z,98586.47
2022-07-27T13:50:04.830Z,98589.66
2022-07-27T13:52:31.476Z,98592.22
2022-07-27T13:54:58.229Z,98588.63
2022-07-27T13:57:24.878Z,98594.06
2022-07-27T13:59:51.664Z,98590.69
2022-07-27T14:02:20.477Z,98595.50
2022-07-27T14:04:51.893Z,98591.03
2022-07-27T14:07:18.509Z,98592.38
2022-07-27T14:10:03.594Z,98584.38
2022-07-27T14:12:30.585Z,98592.22
2022-07-27T14:14:57.373Z,98587.72
2022-07-27T14:17:24.251Z,98580.16
2022-07-27T14:19:51.007Z,98578.63
2022-07-27T14:22:17.649Z,98586.88
2022-07-27T14:24:44.385Z,98578.53
2022-07-27T14:27:11.156Z,98578.88
2022-07-27T14:29:37.908Z,98576.25
2022-07-27T14:32:06.002Z,98574.91
2022-07-27T14:34:32.653Z,98574.47
2022-07-27T14:36:59.600Z,98575.88
2022-07-27T14:39:26.185Z,98579.38
2022-07-27T14:41:52.912Z,98577.97
2022-07-27T14:44:19.658Z,98572.38
2022-07-27T14:46:47.229Z,98573.50
2022-07-27T14:49:17.361Z,98575.59
2022-07-27T14:51:44.404Z,98566.75
2022-07-27T14:54:11.196Z,98557.91
2022-07-27T14:56:37.968Z,98565.44
2022-07-27T14:59:04.844Z,98562.63
2022-07-27T15:01:32.005Z,98568.09
2022-07-27T15:03:58.942Z,98559.97
2022-07-27T15:06:25.905Z,98565.34
2022-07-27T15:08:52.978Z,98569.66
2022-07-27T15:11:19.827Z,98579.88
2022-07-27T15:13:46.702Z,98570.31
2022-07-27T15:16:13.584Z,98566.31
2022-07-27T15:18:41.976Z,98566.66
2022-07-27T15:21:12.716Z,98557.84
2022-07-27T15:23:39.873Z,98565.47
2022-07-27T15:26:06.634Z,98554.88
2022-07-27T15:28:33.409Z,98556.34
2022-07-27T15:31:00.051Z,98555.84
2022-07-27T15:33:26.894Z,98553.66
2022-07-27T15:35:53.963Z,98552.53
2022-07-27T15:38:20.704Z,98540.97
2022-07-27T15:40:47.888Z,98541.16
2022-07-27T15:43:17.071Z,98550.78
2022-07-27T15:45:47.825Z,98544.88
2022-07-27T15:48:16.567Z,98544.38
2022-07-27T15:50:48.543Z,98546.75
2022-07-27T15:53:16.556Z,98533.47
2022-07-27T15:55:44.665Z,98538.38
2022-07-27T15:58:12.273Z,98543.53
2022-07-27T16:00:41.009Z,98541.59
2022-07-27T16:03:12.060Z,98541.66
2022-07-27T16:05:40.524Z,98536.66
2022-07-27T16:08:09.746Z,98539.06
2022-07-27T16:10:38.202Z,98531.25
2022-07-27T16:13:05.752Z,98535.09
2022-07-27T16:15:51.639Z,98528.31
2022-07-27T16:18:18.419Z,98527.44
2022-07-27T16:20:45.172Z,98527.44
2022-07-27T16:23:17.696Z,98533.03
2022-07-27T16:26:04.526Z,98521.28
2022-07-27T16:28:34.253Z,98528.53
2022-07-27T16:31:01.612Z,98526.63
2022-07-27T16:33:28.295Z,98521.50
2022-07-27T16:35:55.019Z,98521.69
2022-07-27T16:38:21.745Z,98519.09
2022-07-27T16:40:48.467Z,98512.25
2022-07-27T16:43:15.177Z,98513.53
2022-07-27T16:45:41.915Z,98516.31
2022-07-27T16:48:08.998Z,98523.16
2022-07-27T16:50:35.727Z,98519.72
2022-07-27T16:53:02.558Z,98518.91
2022-07-27T16:55:30.221Z,98524.03
2022-07-27T16:57:57.131Z,98519.84
2022-07-27T17:00:23.874Z,98519.53
2022-07-27T17:02:50.740Z,98523.91
2022-07-27T17:05:17.503Z,98521.69
2022-07-27T17:07:44.251Z,98522.94
2022-07-27T17:10:10.950Z,98531.31
2022-07-27T17:12:39.201Z,98532.69
2022-07-27T17:15:07.406Z,98529.78
2022-07-27T17:17:34.722Z,98525.28
2022-07-27T17:20:01.766Z,98529.34
2022-07-27T17:22:28.557Z,98538.03
2022-07-27T17:24:55.380Z,98541.91
2022-07-27T17:27:22.231Z,98542.25
2022-07-27T17:29:49.319Z,98542.88
2022-07-27T17:32:16.209Z,98548.81
2022-07-27T17:34:43.553Z,98541.59
2022-07-27T17:37:10.294Z,98551.53
2022-07-27T17:39:37.690Z,98544.19
2022-07-27T17:42:04.474Z,98545.22
2022-07-27T17:44:32.471Z,98542.25
2022-07-27T17:47:01.236Z,98546.44
2022-07-27T17:49:28.467Z,98543.13
2022-07-27T17:51:55.482Z,98537.59
2022-07-27T17:54:23.569Z,98541.69
2022-07-27T17:56:50.399Z,98530.53
2022-07-27T17:59:37.052Z,98541.44
2022-07-27T18:02:05.020Z,98533.06
2022-07-27T18:04:37.027Z,98540.69
2022-07-27T18:07:05.972Z,98533.28
2022-07-27T18:09:32.758Z,98534.25
2022-07-27T18:11:59.673Z,98535.47
2022-07-27T18:14:26.527Z,98533.03
2022-07-27T18:16:53.570Z,98540.03
2022-07-27T18:19:20.269Z,98541.34
2022-07-27T18:21:46.816Z,98541.25
2022-07-27T18:24:13.456Z,98539.91
2022-07-27T18:26:40.273Z,98542.78
2022-07-27T18:29:07.987Z,98538.19
2022-07-27T18:31:34.940Z,98536.38
2022-07-27T18:34:02.745Z,98540.84
2022-07-27T18:36:29.830Z,98542.97
2022-07-27T18:38:57.908Z,98535.06
2022-07-27T18:41:25.080Z,98548.66
2022-07-27T18:43:51.684Z,98543.13
2022-07-27T18:46:20.447Z,98551.50
2022-07-27T18:48:47.861Z,98543.38
2022-07-27T18:51:15.693Z,98550.50
2022-07-27T18:53:44.296Z,98545.88
2022-07-27T18:56:11.100Z,98546.13
2022-07-27T18:58:38.186Z,98547.53
2022-07-27T19:01:05.103Z,98553.13
2022-07-27T19:03:32.217Z,98547.31
2022-07-27T19:05:59.052Z,98544.78
2022-07-27T19:08:25.708Z,98552.38
2022-07-27T19:10:52.554Z,98557.97
2022-07-27T19:13:19.133Z,98573.44
2022-07-27T19:15:45.918Z,98575.50
2022-07-27T19:18:12.974Z,98574.50
2022-07-27T19:20:39.970Z,98579.81
2022-07-27T19:23:07.349Z,98573.56
2022-07-27T19:25:34.687Z,98579.84
2022-07-27T19:28:02.798Z,98575.81
2022-07-27T19:30:29.871Z,98578.91
2022-07-27T19:32:56.632Z,98592.50
2022-07-27T19:35:23.593Z,98580.91
2022-07-27T19:37:50.340Z,98592.56
2022-07-27T19:40:43.368Z,98596.44
2022-07-27T19:43:05.027Z,98601.09
2022-07-27T19:45:31.746Z,98604.06
2022-07-27T19:47:59.534Z,98609.94
2022-07-27T19:50:26.200Z,98610.78
2022-07-27T19:52:52.945Z,98611.47
2022-07-27T19:55:19.555Z,98621.94
2022-07-27T19:57:46.162Z,98624.22
2022-07-27T20:00:13.715Z,98621.41
2022-07-27T20:02:40.453Z,98629.78
2022-07-27T20:05:07.922Z,98630.97
2022-07-27T20:07:34.627Z,98640.19
2022-07-27T20:10:01.365Z,98639.09
2022-07-27T20:12:27.989Z,98637.56
2022-07-27T20:14:54.610Z,98647.38
2022-07-27T20:17:21.189Z,98644.66
2022-07-27T20:19:47.790Z,98648.03
2022-07-27T20:22:14.425Z,98652.72
2022-07-27T20:24:41.142Z,98656.84
2022-07-27T20:27:07.864Z,98660.94
2022-07-27T20:29:34.664Z,98653.75
2022-07-27T20:32:01.300Z,98662.31
2022-07-27T20:34:28.033Z,98661.75
2022-07-27T20:36:55.550Z,98667.22
2022-07-27T20:39:24.021Z,98665.41
2022-07-27T20:41:51.079Z,98662.91
2022-07-27T20:44:17.676Z,98669.84
2022-07-27T20:46:44.409Z,98664.06
2022-07-27T20:49:11.428Z,98662.50
2022-07-27T20:51:39.575Z,98671.38
2022-07-27T20:54:06.445Z,98683.47
2022-07-27T20:56:33.068Z,98677.13
2022-07-27T20:58:59.879Z,98677.94
2022-07-27T21:01:26.643Z,98672.84
2022-07-27T21:03:53.418Z,98678.00
2022-07-27T21:06:19.991Z,98677.00
2022-07-27T21:08:47.073Z,98683.88
2022-07-27T21:11:14.161Z,98682.22
2022-07-27T21:13:41.726Z,98696.28
2022-07-27T21:16:08.868Z,98691.38
2022-07-27T21:18:35.957Z,98698.72
2022-07-27T21:21:02.602Z,98707.47
2022-07-27T21:23:47.978Z,98703.00
2022-07-27T21:26:14.697Z,98708.53
2022-07-27T21:28:44.700Z,98705.78
2022-07-27T21:31:11.260Z,98714.69
2022-07-27T21:33:39.900Z,98710.59
2022-07-27T21:36:07.214Z,98716.00
2022-07-27T21:38:34.054Z,98713.34
2022-07-27T21:41:00.736Z,98712.50
2022-07-27T21:43:27.355Z,98711.84
2022-07-27T21:45:54.033Z,98717.91
2022-07-27T21:48:20.766Z,98722.78
2022-07-27T21:50:47.375Z,98715.06
2022-07-27T21:53:14.065Z,98719.78
2022-07-27T21:55:41.148Z,98727.19
2022-07-27T21:58:10.146Z,98719.91
2022-07-27T22:00:37.453Z,98721.81
2022-07-27T22:03:04.496Z,98722.47
2022-07-27T22:05:31.353Z,98731.44
2022-07-27T22:08:00.101Z,98731.13
2022-07-27T22:10:31.153Z,98745.75
2022-07-27T22:12:58.648Z,98738.63
2022-07-27T22:15:25.806Z,98746.03
2022-07-27T22:17:52.785Z,98740.75
2022-07-27T22:20:21.282Z,98745.25
2022-07-27T22:22:49.176Z,98748.13
2022-07-27T22:25:16.539Z,98746.28
2022-07-27T22:27:43.099Z,98745.44
2022-07-27T22:30:10.308Z,98744.69
2022-07-27T22:32:37.005Z,98753.75
2022-07-27T22:35:04.561Z,98760.16
2022-07-27T22:37:31.057Z,98754.22
2022-07-27T22:39:57.639Z,98750.94
2022-07-27T22:42:24.236Z,98750.09
2022-07-27T22:44:50.887Z,98751.44
2022-07-27T22:47:17.502Z,98747.00
2022-07-27T22:49:44.277Z,98736.41
2022-07-27T22:52:10.927Z,98737.31
2022-07-27T22:54:38.418Z,98741.69
2022-07-27T22:57:06.609Z,98747.13
2022-07-27T22:59:34.287Z,98749.84
2022-07-27T23:02:01.963Z,98743.84
2022-07-27T23:04:28.742Z,98742.00
2022-07-27T23:06:55.762Z,98752.50
2022-07-27T23:09:23.396Z,98745.50
2022-07-27T23:11:51.367Z,98748.94
2022-07-27T23:14:19.031Z,98741.84
2022-07-27T23:16:46.014Z,98744.00
2022-07-27T23:19:12.830Z,98743.84
2022-07-27T23:21:42.012Z,98741.03
2022-07-27T23:24:10.294Z,98746.47
2022-07-27T23:26:38.030Z,98751.13
2022-07-27T23:29:04.640Z,98749.00
2022-07-27T23:31:31.480Z,98737.84
2022-07-27T23:33:58.233Z,98739.22
2022-07-27T23:36:24.873Z,98739.97
2022-07-27T23:38:51.467Z,98742.19
2022-07-27T23:41:18.053Z,98736.78
2022-07-27T23:43:45.051Z,98732.94
2022-07-27T23:46:11.726Z,98742.50
2022-07-27T23:48:38.391Z,98729.25
2022-07-27T23:51:05.013Z,98746.75
2022-07-27T23:53:31.845Z,98740.06
2022-07-27T23:55:58.733Z,98741.59
2022-07-27T23:58:25.418Z,98738.94
